Pickstown, South Dakota
Current Conditions -  °F | °C
As of 3:15 PM on Saturday 27 Dec 2014 (Local Time) from KONL Reporting Station
Clear Clear  
Wind Chill: 16°   Ceiling: Unl
Heat Index: 22°   Visibility: 10mi
Dew Point: 17°   Wind: 5mph
Humidity: 83%   Direction: 220°SW
Pressure: 30.14"   Gusts: NA
Location:  43.07°N, 98.53°W
Report Text: KONL 272115Z AUTO 22004KT 10SM CLR M06/M08 A3014 RMK AO2 T10561081
Loading
Personal Weather Stations






























Interactive Weather Map New forecast layout! Learn more

10-Day Weather Forecast

Advertisements
Track Severe Weather on mobile